.
WxDataArchive / Data Records for 2013-01-25
2013-01-24 January 2013 2013-01-26

Data Records for Friday, 25 January 2013

Time	Temp	Chill	HIndex	Humid	Dewpt	 Wind 	HiWind	WindDir	Rain 	Barom 
-----	----	-----	------	-----	-----	------	------	-------	-----	----- 
00:00	17.7	17.7	17.7	60	6.2	0	2	90	0.00	30.499 
00:05	17.8	17.8	17.8	61	6.7	0	2	90	0.00	30.499 
00:10	17.8	17.8	17.8	62	7.0	0	2	90	0.00	30.499 
00:15	18.0	18.0	18.0	62	7.2	1	3	90	0.00	30.491 
00:20	18.0	18.0	18.0	62	7.2	0	2	90	0.00	30.491 
00:25	18.1	18.1	18.1	61	6.9	1	4	68	0.00	30.491 
00:30	18.1	18.1	18.1	62	7.3	1	6	112	0.00	30.468 
00:35	18.1	18.1	18.1	62	7.3	1	6	112	0.00	30.468 
00:40	18.1	18.1	18.1	62	7.3	2	5	90	0.00	30.468 
00:45	18.1	18.1	18.1	62	7.3	1	4	112	0.00	30.458 
00:50	18.0	18.0	18.0	62	7.2	2	7	90	0.00	30.458 
00:55	18.0	18.0	18.0	62	7.2	1	5	90	0.00	30.458 
01:00	18.0	18.0	18.0	62	7.2	2	5	90	0.00	30.445 
01:05	18.1	18.1	18.1	62	7.3	2	5	90	0.00	30.445 
01:10	18.1	18.1	18.1	62	7.3	2	6	90	0.00	30.445 
01:15	18.1	18.1	18.1	61	6.9	1	4	90	0.00	30.442 
01:20	18.1	18.1	18.1	62	7.3	1	6	90	0.00	30.442 
01:25	18.1	18.1	18.1	61	6.9	3	10	112	0.00	30.442 
01:30	18.1	18.1	18.1	61	6.9	1	4	90	0.00	30.439 
01:35	18.1	18.1	18.1	61	6.9	2	5	90	0.00	30.439 
01:40	18.1	18.1	18.1	61	6.9	2	6	90	0.00	30.439 
01:45	18.1	18.1	18.1	61	6.9	2	7	90	0.00	30.439 
01:50	18.1	18.1	18.1	62	7.3	1	5	90	0.00	30.439 
01:55	18.3	18.3	18.3	62	7.5	1	3	90	0.00	30.439 
02:00	18.3	18.3	18.3	62	7.5	2	6	90	0.00	30.439 
02:05	18.3	18.3	18.3	62	7.5	2	6	90	0.00	30.439 
02:10	18.3	18.3	18.3	62	7.5	2	5	90	0.00	30.439 
02:15	18.3	18.3	18.3	62	7.5	2	4	90	0.00	30.426 
02:20	18.3	18.3	18.3	62	7.5	2	4	112	0.00	30.426 
02:25	18.3	18.3	18.3	62	7.5	3	7	90	0.00	30.426 
02:30	18.3	18.3	18.3	62	7.5	1	3	90	0.00	30.426 
02:35	18.3	18.3	18.3	63	7.8	0	2	90	0.00	30.426 
02:40	18.3	18.3	18.3	62	7.5	1	4	90	0.00	30.426 
02:45	18.3	18.3	18.3	63	7.8	1	3	90	0.00	30.430 
02:50	18.3	18.3	18.3	63	7.8	1	5	90	0.00	30.430 
02:55	18.3	18.3	18.3	63	7.8	1	3	112	0.00	30.430 
03:00	18.3	18.3	18.3	63	7.8	2	5	90	0.00	30.426 
03:05	18.3	18.3	18.3	62	7.5	2	6	90	0.00	30.426 
03:10	18.3	18.3	18.3	62	7.5	2	6	90	0.00	30.426 
03:15	18.3	18.3	18.3	63	7.8	1	5	90	0.00	30.418 
03:20	18.3	18.3	18.3	63	7.8	2	4	90	0.00	30.418 
03:25	18.3	18.3	18.3	63	7.8	2	6	90	0.00	30.418 
03:30	18.3	18.3	18.3	63	7.8	3	10	90	0.00	30.392 
03:35	18.3	18.3	18.3	64	8.2	2	5	112	0.00	30.392 
03:40	18.3	18.3	18.3	64	8.2	2	6	112	0.00	30.392 
03:45	18.3	12.3	18.3	64	8.2	4	10	112	0.00	30.377 
03:50	18.1	18.1	18.1	64	8.0	3	6	90	0.00	30.377 
03:55	18.1	18.1	18.1	64	8.0	3	6	112	0.00	30.377 
04:00	18.1	18.1	18.1	64	8.0	2	9	112	0.00	30.363 
04:05	18.3	18.3	18.3	64	8.2	3	6	90	0.00	30.363 
04:10	18.3	18.3	18.3	64	8.2	3	9	90	0.00	30.363 
04:15	18.3	18.3	18.3	64	8.2	2	6	90	0.00	30.348 
04:20	18.3	18.3	18.3	64	8.2	2	5	90	0.00	30.348 
04:25	18.3	18.3	18.3	63	7.8	2	7	90	0.00	30.348 
04:30	18.3	18.3	18.3	64	8.2	1	3	90	0.00	30.332 
04:35	18.3	18.3	18.3	64	8.2	1	5	90	0.00	30.332 
04:40	18.3	18.3	18.3	64	8.2	3	6	90	0.00	30.332 
04:45	18.3	18.3	18.3	64	8.2	1	5	112	0.00	30.320 
04:50	18.3	18.3	18.3	64	8.2	1	6	112	0.00	30.320 
04:55	18.3	18.3	18.3	64	8.2	1	4	112	0.00	30.320 
05:00	18.3	18.3	18.3	65	8.5	1	4	68	0.00	30.317 
05:05	18.3	18.3	18.3	64	8.2	1	6	90	0.00	30.317 
05:10	18.3	18.3	18.3	65	8.5	1	3	112	0.00	30.317 
05:15	18.3	18.3	18.3	65	8.5	1	5	90	0.00	30.309 
05:20	18.3	18.3	18.3	65	8.5	1	4	90	0.00	30.309 
05:25	18.4	18.4	18.4	65	8.6	1	4	112	0.00	30.309 
05:30	18.4	18.4	18.4	64	8.3	1	3	112	0.00	30.307 
05:35	18.4	18.4	18.4	65	8.6	1	4	112	0.00	30.307 
05:40	18.4	18.4	18.4	65	8.6	1	4	90	0.00	30.307 
05:45	18.4	18.4	18.4	64	8.3	2	6	90	0.00	30.287 
05:50	18.6	18.6	18.6	64	8.5	2	6	90	0.00	30.287 
05:55	18.6	18.6	18.6	63	8.1	2	7	112	0.00	30.287 
06:00	18.6	18.6	18.6	63	8.1	2	6	112	0.00	30.272 
06:05	18.6	18.6	18.6	63	8.1	1	3	112	0.00	30.272 
06:10	18.6	18.6	18.6	63	8.1	1	4	90	0.00	30.272 
06:15	18.8	18.8	18.8	62	8.0	1	4	112	0.00	30.266 
06:20	18.8	18.8	18.8	62	8.0	1	4	90	0.00	30.266 
06:25	18.8	18.8	18.8	63	8.3	1	3	90	0.00	30.266 
06:30	18.8	18.8	18.8	63	8.3	1	3	112	0.00	30.249 
06:35	18.8	18.8	18.8	62	8.0	2	5	90	0.00	30.249 
06:40	18.9	18.9	18.9	62	8.1	1	5	112	0.00	30.249 
06:45	18.9	18.9	18.9	61	7.7	1	4	68	0.00	30.241 
06:50	18.9	18.9	18.9	61	7.7	1	4	90	0.00	30.241 
06:55	18.9	18.9	18.9	61	7.7	1	4	112	0.00	30.241 
07:00	18.9	18.9	18.9	61	7.7	1	4	112	0.00	30.243 
07:05	18.9	18.9	18.9	61	7.7	1	3	112	0.00	30.243 
07:10	18.9	18.9	18.9	61	7.7	1	3	112	0.00	30.243 
07:15	18.9	18.9	18.9	61	7.7	2	6	90	0.00	30.239 
07:20	18.9	18.9	18.9	61	7.7	1	3	90	0.00	30.239 
07:25	18.9	18.9	18.9	61	7.7	1	3	112	0.00	30.239 
07:30	18.9	18.9	18.9	61	7.7	2	7	90	0.00	30.225 
07:35	18.9	18.9	18.9	62	8.1	1	6	112	0.00	30.225 
07:40	18.9	18.9	18.9	62	8.1	1	5	90	0.00	30.225 
07:45	18.9	18.9	18.9	62	8.1	1	4	90	0.00	30.210 
07:50	18.9	18.9	18.9	62	8.1	1	6	90	0.00	30.210 
07:55	18.9	18.9	18.9	62	8.1	1	4	90	0.00	30.210 
08:00	18.9	18.9	18.9	62	8.1	1	4	135	0.00	30.220 
08:05	19.1	19.1	19.1	62	8.3	1	4	112	0.00	30.220 
08:10	19.1	19.1	19.1	62	8.3	0	2	112	0.00	30.220 
08:15	19.1	19.1	19.1	62	8.3	1	4	90	0.00	30.217 
08:20	19.1	19.1	19.1	62	8.3	1	3	112	0.00	30.217 
08:25	19.1	19.1	19.1	62	8.3	1	4	112	0.00	30.217 
08:30	19.1	19.1	19.1	62	8.3	1	6	90	0.00	30.212 
08:35	19.1	19.1	19.1	64	9.0	2	6	90	0.00	30.212 
08:40	18.9	18.9	18.9	69	10.4	2	7	90	0.00	30.212 
08:45	18.6	18.6	18.6	72	11.1	1	5	112	0.00	30.212 
08:50	18.4	18.4	18.4	75	11.8	2	5	135	0.00	30.212 
08:55	18.1	18.1	18.1	77	12.1	1	4	90	0.00	30.212 
09:00	18.1	18.1	18.1	77	12.1	0	3	90	0.00	30.212 
09:05	18.1	18.1	18.1	79	12.7	0	1	90	0.00	30.212 
09:10	18.1	18.1	18.1	79	12.7	0	2	90	0.00	30.212 
09:15	18.1	18.1	18.1	80	13.0	0	2	90	0.00	30.203 
09:20	18.1	18.1	18.1	80	13.0	1	3	90	0.00	30.203 
09:25	18.1	18.1	18.1	81	13.3	1	3	90	0.00	30.203 
09:30	18.1	18.1	18.1	81	13.3	1	3	90	0.00	30.197 
09:35	18.1	18.1	18.1	82	13.5	0	1	90	0.00	30.197 
09:40	18.3	18.3	18.3	82	13.7	0	2	90	0.00	30.197 
09:45	18.4	18.4	18.4	82	13.8	0	2	90	0.00	30.202 
09:50	18.4	18.4	18.4	82	13.8	0	1	90	0.00	30.202 
09:55	18.6	18.6	18.6	82	14.0	0	2	90	0.00	30.202 
10:00	18.6	18.6	18.6	82	14.0	1	2	90	0.00	30.188 
10:05	18.6	18.6	18.6	82	14.0	0	2	90	0.00	30.188 
10:10	18.9	18.9	18.9	82	14.3	0	1	90	0.00	30.188 
10:15	18.9	18.9	18.9	82	14.3	1	4	90	0.00	30.176 
10:20	19.1	19.1	19.1	82	14.5	1	5	112	0.00	30.176 
10:25	19.1	19.1	19.1	82	14.5	1	3	112	0.00	30.176 
10:30	19.1	19.1	19.1	82	14.5	1	4	112	0.00	30.181 
10:35	19.2	19.2	19.2	82	14.6	1	3	112	0.00	30.181 
10:40	19.2	19.2	19.2	81	14.3	1	4	90	0.00	30.181 
10:45	19.1	19.1	19.1	81	14.2	2	5	90	0.00	30.175 
10:50	19.1	19.1	19.1	81	14.2	1	5	112	0.00	30.175 
10:55	19.2	19.2	19.2	81	14.3	1	4	90	0.00	30.175 
11:00	19.2	19.2	19.2	80	14.1	2	7	90	0.00	30.175 
11:05	19.2	19.2	19.2	80	14.1	1	5	112	0.00	30.175 
11:10	19.5	19.5	19.5	80	14.4	1	3	112	0.00	30.175 
11:15	19.7	19.7	19.7	80	14.6	1	4	112	0.00	30.160 
11:20	20.0	20.0	20.0	79	14.6	1	3	112	0.00	30.160 
11:25	20.2	20.2	20.2	79	14.8	1	3	112	0.00	30.160 
11:30	20.5	20.5	20.5	78	14.8	1	4	112	0.00	30.157 
11:35	20.6	20.6	20.6	78	14.8	1	4	90	0.00	30.157 
11:40	21.0	21.0	21.0	77	14.9	1	4	90	0.00	30.157 
11:45	21.0	21.0	21.0	77	14.9	1	3	112	0.00	30.149 
11:50	21.1	21.1	21.1	77	15.0	1	3	112	0.00	30.149 
11:55	21.1	21.1	21.1	76	14.7	0	2	112	0.00	30.149 
12:00	21.3	21.3	21.3	76	14.9	1	2	68	0.00	30.144 
12:05	21.4	21.4	21.4	76	15.0	1	3	68	0.00	30.144 
12:10	21.4	21.4	21.4	75	14.7	1	3	68	0.00	30.144 
12:15	21.6	21.6	21.6	75	14.9	1	2	68	0.00	30.130 
12:20	21.6	21.6	21.6	75	14.9	0	2	68	0.00	30.130 
12:25	21.8	21.8	21.8	75	15.1	0	2	68	0.00	30.130 
12:30	22.1	22.1	22.1	74	15.1	0	3	68	0.00	30.126 
12:35	22.4	22.4	22.4	74	15.4	0	1	68	0.00	30.126 
12:40	22.7	22.7	22.7	73	15.4	1	3	68	0.00	30.126 
12:45	22.7	22.7	22.7	73	15.4	0	2	68	0.00	30.114 
12:50	22.7	22.7	22.7	73	15.4	1	2	68	0.00	30.114 
12:55	22.7	22.7	22.7	71	14.7	1	3	68	0.00	30.114 
13:00	22.7	22.7	22.7	71	14.7	1	3	68	0.00	30.098 
13:05	22.9	22.9	22.9	71	14.9	0	2	68	0.00	30.098 
13:10	22.9	22.9	22.9	72	15.2	0	1	68	0.00	30.098 
13:15	22.7	22.7	22.7	71	14.7	0	2	68	0.00	30.087 
13:20	22.7	22.7	22.7	72	15.1	0	2	68	0.00	30.087 
13:25	22.9	22.9	22.9	72	15.2	0	2	68	0.00	30.087 
13:30	22.9	22.9	22.9	72	15.2	1	4	248	0.00	30.078 
13:35	23.0	23.0	23.0	72	15.3	0	2	248	0.00	30.078 
13:40	23.3	23.3	23.3	71	15.3	1	2	248	0.00	30.078 
13:45	23.3	23.3	23.3	71	15.3	0	3	248	0.00	30.071 
13:50	23.3	23.3	23.3	70	15.0	0	2	248	0.00	30.071 
13:55	23.3	23.3	23.3	70	15.0	0	3	248	0.00	30.071 
14:00	23.5	23.5	23.5	70	15.2	0	2	248	0.01	30.062 
14:05	23.3	23.3	23.3	70	15.0	1	3	248	0.00	30.062 
14:10	23.3	23.3	23.3	70	15.0	1	3	248	0.00	30.062 
14:15	23.5	23.5	23.5	70	15.2	1	2	248	0.00	30.055 
14:20	23.5	23.5	23.5	70	15.2	1	3	248	0.00	30.055 
14:25	23.5	23.5	23.5	70	15.2	0	2	248	0.00	30.055 
14:30	23.6	23.6	23.6	70	15.3	1	3	248	0.00	30.045 
14:35	23.5	23.5	23.5	70	15.2	1	3	225	0.00	30.045 
14:40	23.5	23.5	23.5	71	15.5	0	2	225	0.00	30.045 
14:45	23.5	23.5	23.5	71	15.5	0	2	225	0.00	30.045 
14:50	23.5	23.5	23.5	71	15.5	0	2	225	0.00	30.045 
14:55	23.5	23.5	23.5	71	15.5	0	3	248	0.00	30.045 
15:00	23.5	23.5	23.5	71	15.5	1	3	248	0.00	30.040 
15:05	23.2	23.2	23.2	71	15.2	1	4	248	0.00	30.040 
15:10	23.2	23.2	23.2	71	15.2	0	2	248	0.00	30.040 
15:15	23.2	23.2	23.2	72	15.5	0	2	248	0.00	30.043 
15:20	23.2	23.2	23.2	72	15.5	0	1	248	0.00	30.043 
15:25	23.2	23.2	23.2	72	15.5	0	2	248	0.00	30.043 
15:30	23.0	23.0	23.0	73	15.7	0	1	248	0.00	30.041 
15:35	23.2	23.2	23.2	73	15.9	0	2	248	0.00	30.041 
15:40	23.2	23.2	23.2	73	15.9	0	2	248	0.00	30.041 
15:45	23.3	23.3	23.3	73	15.9	0	2	248	0.00	30.042 
15:50	23.2	23.2	23.2	72	15.5	1	4	248	0.00	30.042 
15:55	23.2	23.2	23.2	73	15.9	0	1	248	0.00	30.042 
16:00	23.2	23.2	23.2	73	15.9	0	3	248	0.00	30.046 
16:05	23.2	23.2	23.2	73	15.9	0	1	248	0.00	30.046 
16:10	23.0	23.0	23.0	73	15.7	0	2	248	0.00	30.046 
16:15	22.9	22.9	22.9	73	15.6	1	4	248	0.00	30.051 
16:20	22.9	22.9	22.9	73	15.6	1	3	248	0.00	30.051 
16:25	22.9	22.9	22.9	73	15.6	0	2	248	0.00	30.051 
16:30	23.0	23.0	23.0	74	16.0	0	2	248	0.00	30.058 
16:35	23.0	23.0	23.0	74	16.0	0	2	248	0.00	30.058 
16:40	23.2	23.2	23.2	73	15.9	0	3	248	0.00	30.058 
16:45	23.2	23.2	23.2	73	15.9	1	4	248	0.00	30.057 
16:50	23.2	23.2	23.2	73	15.9	1	2	248	0.00	30.057 
16:55	23.2	23.2	23.2	73	15.9	0	2	248	0.00	30.057 
17:00	23.2	23.2	23.2	73	15.9	0	2	248	0.00	30.047 
17:05	23.2	23.2	23.2	73	15.9	1	3	248	0.00	30.047 
17:10	23.2	23.2	23.2	73	15.9	1	4	248	0.00	30.047 
17:15	23.0	23.0	23.0	73	15.7	0	2	248	0.00	30.045 
17:20	23.0	23.0	23.0	73	15.7	0	2	248	0.00	30.045 
17:25	23.0	23.0	23.0	74	16.0	0	3	248	0.00	30.045 
17:30	23.0	23.0	23.0	74	16.0	0	3	248	0.00	30.046 
17:35	23.0	23.0	23.0	74	16.0	0	3	248	0.00	30.046 
17:40	23.0	23.0	23.0	74	16.0	1	3	248	0.00	30.046 
17:45	22.9	22.9	22.9	74	15.9	1	3	248	0.00	30.046 
17:50	22.9	22.9	22.9	74	15.9	0	3	248	0.00	30.046 
17:55	22.9	22.9	22.9	74	15.9	1	3	248	0.00	30.046 
18:00	22.9	22.9	22.9	74	15.9	1	3	248	0.00	30.047 
18:05	22.9	22.9	22.9	75	16.2	1	2	248	0.00	30.047 
18:10	22.9	22.9	22.9	75	16.2	1	3	248	0.00	30.047 
18:15	22.9	22.9	22.9	75	16.2	0	2	248	0.00	30.056 
18:20	22.9	22.9	22.9	75	16.2	0	1	248	0.00	30.056 
18:25	22.9	22.9	22.9	75	16.2	0	2	248	0.00	30.056 
18:30	22.9	22.9	22.9	75	16.2	1	2	248	0.00	30.060 
18:35	22.9	22.9	22.9	75	16.2	1	3	248	0.00	30.060 
18:40	22.9	22.9	22.9	75	16.2	1	3	248	0.00	30.060 
18:45	22.9	22.9	22.9	75	16.2	1	3	248	0.00	30.061 
18:50	22.9	22.9	22.9	76	16.5	1	2	248	0.00	30.061 
18:55	23.0	23.0	23.0	76	16.6	1	3	248	0.00	30.061 
19:00	23.0	23.0	23.0	76	16.6	1	4	248	0.00	30.066 
19:05	23.0	23.0	23.0	77	16.9	1	2	248	0.00	30.066 
19:10	22.9	22.9	22.9	77	16.8	1	4	248	0.00	30.066 
19:15	22.9	22.9	22.9	77	16.8	1	3	248	0.00	30.067 
19:20	22.9	22.9	22.9	77	16.8	1	2	248	0.00	30.067 
19:25	22.9	22.9	22.9	78	17.1	1	3	248	0.00	30.067 
19:30	23.0	23.0	23.0	78	17.2	1	4	248	0.00	30.070 
19:35	23.0	23.0	23.0	78	17.2	1	3	248	0.00	30.070 
19:40	23.0	23.0	23.0	78	17.2	1	3	248	0.00	30.070 
19:45	23.0	23.0	23.0	78	17.2	1	3	248	0.00	30.073 
19:50	23.0	23.0	23.0	78	17.2	1	3	248	0.00	30.073 
19:55	23.0	23.0	23.0	79	17.5	1	3	248	0.00	30.073 
20:00	23.0	23.0	23.0	79	17.5	1	3	248	0.00	30.073 
20:05	23.0	23.0	23.0	79	17.5	1	3	248	0.00	30.073 
20:10	23.0	23.0	23.0	80	17.8	1	4	248	0.00	30.073 
20:15	23.0	23.0	23.0	80	17.8	2	6	270	0.00	30.075 
20:20	23.0	23.0	23.0	80	17.8	1	3	270	0.00	30.075 
20:25	23.0	23.0	23.0	81	18.1	0	2	270	0.00	30.075 
20:30	23.0	23.0	23.0	81	18.1	1	3	270	0.00	30.077 
20:35	23.0	23.0	23.0	81	18.1	0	3	270	0.00	30.077 
20:40	23.0	23.0	23.0	81	18.1	0	3	270	0.00	30.077 
20:45	23.0	23.0	23.0	81	18.1	0	2	270	0.00	30.079 
20:50	23.0	23.0	23.0	82	18.3	1	3	270	0.00	30.079 
20:55	23.0	23.0	23.0	82	18.3	0	3	270	0.00	30.079 
21:00	23.0	23.0	23.0	82	18.3	0	2	270	0.00	30.078 
21:05	23.0	23.0	23.0	82	18.3	1	4	270	0.00	30.078 
21:10	23.0	23.0	23.0	82	18.3	0	3	270	0.00	30.078 
21:15	23.0	23.0	23.0	83	18.6	0	2	270	0.00	30.074 
21:20	23.0	23.0	23.0	83	18.6	0	2	270	0.00	30.074 
21:25	23.2	23.2	23.2	83	18.8	0	2	270	0.00	30.074 
21:30	23.2	23.2	23.2	83	18.8	0	2	270	0.00	30.074 
21:35	23.2	23.2	23.2	83	18.8	1	3	270	0.00	30.074 
21:40	23.2	23.2	23.2	83	18.8	0	2	270	0.00	30.074 
21:45	23.3	23.3	23.3	83	18.9	0	2	270	0.00	30.072 
21:50	23.3	23.3	23.3	83	18.9	0	2	270	0.00	30.072 
21:55	23.3	23.3	23.3	83	18.9	0	3	270	0.00	30.072 
22:00	23.5	23.5	23.5	82	18.8	0	1	270	0.00	30.075 
22:05	23.5	23.5	23.5	82	18.8	0	2	270	0.00	30.075 
22:10	23.5	23.5	23.5	82	18.8	0	2	270	0.00	30.075 
22:15	23.6	23.6	23.6	82	18.9	0	4	270	0.00	30.074 
22:20	23.6	23.6	23.6	82	18.9	0	1	270	0.00	30.074 
22:25	23.6	23.6	23.6	82	18.9	0	1	270	0.00	30.074 
22:30	23.6	23.6	23.6	82	18.9	0	2	270	0.00	30.076 
22:35	23.8	23.8	23.8	82	19.1	0	2	270	0.00	30.076 
22:40	23.8	23.8	23.8	82	19.1	0	1	270	0.00	30.076 
22:45	23.8	23.8	23.8	82	19.1	0	1	270	0.00	30.076 
22:50	23.8	23.8	23.8	82	19.1	0	1	270	0.00	30.076 
22:55	23.8	23.8	23.8	82	19.1	0	1	270	0.00	30.076 
23:00	23.8	23.8	23.8	82	19.1	0	1	270	0.00	30.076 
23:05	23.8	23.8	23.8	82	19.1	0	2	270	0.00	30.076 
23:10	23.8	23.8	23.8	82	19.1	0	3	270	0.00	30.076 
23:15	23.8	23.8	23.8	82	19.1	0	1	270	0.00	30.076 
23:20	23.8	23.8	23.8	82	19.1	0	2	270	0.00	30.076 
23:25	23.8	23.8	23.8	82	19.1	0	0	---	0.00	30.076 
23:30	23.8	23.8	23.8	82	19.1	0	1	270	0.00	30.087 
23:35	23.9	23.9	23.9	82	19.2	0	0	---	0.00	30.087 
23:40	23.9	23.9	23.9	82	19.2	0	1	270	0.00	30.087 
23:45	23.9	23.9	23.9	82	19.2	0	1	270	0.00	30.089 
23:50	23.9	23.9	23.9	83	19.5	0	1	270	0.00	30.089 
23:55	23.9	23.9	23.9	83	19.5	0	1	270	0.00	30.089 

CoCoRaHS
IN-AL-39
A2 Web Hosting
Creative Commons License
GoDaddy
search engine by freefind advanced

loaded 2018-11-16 11:49:27 • last modified 2010-11-18 10:43:29
Privacy PolicyDisclaimer
• wx.awcolley.com is powered by PmWiki v.2002016 •
• all content (unless otherwise noted) © 2018 A W Colley